McCook, NE

12:02 PM CDT on July 29, 2015 (GMT -0500)
KNEMCCOO2 | | Change Station
CLOSE
Current Station
Personal Weather Station
Location: McCook, NE
Elevation: 2609 ft
Nearby Weather Stations

Elev 2609 ft 40.21 °N, 100.64 °W | Updated 46 seconds ago

Mostly Cloudy
Mostly Cloudy
71.2 °F
Feels Like 76 °F
N
0.0
Wind Variable Wind from ESE
Gusts 1.1 mph

Today
High -- | Low -- °F
--% Chance of Precip.
Yesterday
High -- | Low -- °F
Precip. -- in
6:37 AM 8:59 PM
Waxing Gibbous, 96% visible
Pressure 30.21 in
Visibility 10.0 miles
Clouds Few 9500 ft
Scattered Clouds 12000 ft
Heat Index 76 °F
Dew Point 57 °F
Humidity 60%
Rainfall 0.00 in
Snow Depth Not available.
UV 8 out of 12
Pollen 6.40 out of 12
Air Quality Not available.
Flu Activity Not available.
METAR KMCK 291653Z AUTO 08009KT 10SM FEW095 SCT120 23/11 A3026 RMK AO2 SLP229 T02280106

More Conditions Fewer Conditions

Pressure 30.21 in
Visibility 10.0 miles
Clouds Few 9500 ft
Scattered Clouds 12000 ft
Heat Index 76 °F
Dew Point 57 °F
Humidity 60%
Rainfall 0.00 in
Snow Depth Not available.
UV 8 out of 12
Pollen 6.40 out of 12
Air Quality Not available.
Flu Activity Not available.
METAR KMCK 291653Z AUTO 08009KT 10SM FEW095 SCT120 23/11 A3026 RMK AO2 SLP229 T02280106

More Conditions Fewer Conditions

10-Day Weather Forecast

×

Almanac

Astronomy

Jul. 29, 2015 Rise Set
Actual Time
Civil Twilight
Nautical Twilight
Astronomical Twilight
Moon
Length of Visible Light
Length of Day
Tomorrow will be .
, % of the Moon is Illuminated

Today's Extremes

State Highs State Lows

Community

WunderPhotos

Upload Photos

1,842,130 photos uploaded!

WunderBlogs® & News

Nearby

Air Quality

  Air Quality AQ Index Pollutant
Not available.

Snow Depth

Station Depth Elevation

Earthquake Activity

City Distance Mag. Time & Date
Minimum magnitude displayed is 2.5.

Coastal Water Temperatures

Place Temperature

Stations

Nearby Weather Stations

Station Location Temp. Windchill Dew Point Humidity Wind Precip. Elev Updated Type